Time;durP1;ratioP1;P1;durP2;ratioP2;P2;SDS_P1;SDS_P2;PMS_P1;PMS_P2;Temp;Humidity;BMP_temperature;BMP_pressure;BME280_temperature;BME280_humidity;BME280_pressure;Samples;Min_cycle;Max_cycle;Signal;HPM_P1;HPM_P2
2022/10/10 00:00:28;;;;;;;7.77;5.97;;;;;;;;;;4960508;28;20043;-63
2022/10/10 00:02:54;;;;;;;10.83;5.47;;;;;;;;;;4968887;28;20058;-62
2022/10/10 00:05:20;;;;;;;10.13;5.17;;;;;;;;;;4968142;28;20051;-63
2022/10/10 00:07:46;;;;;;;11.60;5.77;;;;;;;;;;4962186;28;20042;-62
2022/10/10 00:10:12;;;;;;;13.27;6.00;;;;;;;;;;4961651;28;20097;-62
2022/10/10 00:12:38;;;;;;;9.13;5.40;;;;;;;;;;4960630;28;20043;-63
2022/10/10 00:15:04;;;;;;;12.80;6.27;;;;;;;;;;4968704;28;20050;-62
2022/10/10 00:17:30;;;;;;;11.33;6.23;;;;;;;;;;4960460;28;20039;-62
2022/10/10 00:19:56;;;;;;;6.80;5.47;;;;;;;;;;4955067;28;20501;-62
2022/10/10 00:22:22;;;;;;;12.50;6.03;;;;;;;;;;4964962;28;20045;-63
2022/10/10 00:24:48;;;;;;;11.27;7.07;;;;;;;;;;4969309;28;20050;-62
2022/10/10 00:27:14;;;;;;;10.33;6.40;;;;;;;;;;4960774;28;20046;-63
2022/10/10 00:29:40;;;;;;;11.90;6.10;;;;;;;;;;4930476;28;1102335;-63
2022/10/10 00:32:06;;;;;;;13.93;6.50;;;;;;;;;;4964004;28;20043;-63
2022/10/10 00:34:32;;;;;;;13.63;6.40;;;;;;;;;;4965144;28;20043;-62
2022/10/10 00:36:58;;;;;;;10.73;6.60;;;;;;;;;;4958713;28;20047;-62
2022/10/10 00:39:24;;;;;;;9.57;6.43;;;;;;;;;;4951309;28;20043;-63
2022/10/10 00:41:50;;;;;;;9.13;6.63;;;;;;;;;;4969014;28;20034;-63
2022/10/10 00:44:16;;;;;;;11.80;6.80;;;;;;;;;;4968954;28;20130;-62
2022/10/10 00:46:42;;;;;;;13.50;6.43;;;;;;;;;;4961446;28;20053;-63
2022/10/10 00:49:14;;;;;;;8.50;6.53;;;;;;;;;;4969547;28;20058;-63
2022/10/10 00:51:40;;;;;;;9.83;6.77;;;;;;;;;;4967420;28;20455;-62
2022/10/10 00:54:08;;;;;;;17.37;6.53;;;;;;;;;;4962271;28;20416;-63
2022/10/10 00:56:46;;;;;;;8.77;6.63;;;;;;;;;;4968853;28;20089;-63
2022/10/10 00:59:13;;;;;;;8.97;6.20;;;;;;;;;;4966213;28;20046;-62
2022/10/10 01:01:40;;;;;;;10.70;6.80;;;;;;;;;;4968382;28;20069;-63
2022/10/10 01:04:06;;;;;;;11.73;6.70;;;;;;;;;;4965509;28;20114;-63
2022/10/10 01:06:33;;;;;;;10.93;6.37;;;;;;;;;;4964159;28;20058;-63
2022/10/10 01:09:00;;;;;;;9.77;6.80;;;;;;;;;;4968845;28;20086;-63
2022/10/10 01:11:37;;;;;;;11.07;6.50;;;;;;;;;;4966453;28;20125;-63
2022/10/10 01:14:03;;;;;;;12.30;6.50;;;;;;;;;;4967202;28;20138;-62
2022/10/10 01:16:49;;;;;;;11.63;6.37;;;;;;;;;;4963563;28;20125;-63
2022/10/10 01:19:29;;;;;;;12.20;6.07;;;;;;;;;;4951184;28;20057;-62
2022/10/10 01:22:14;;;;;;;8.00;6.70;;;;;;;;;;4972579;28;20051;-63
2022/10/10 01:24:52;;;;;;;11.73;6.60;;;;;;;;;;4973352;28;20047;-63
2022/10/10 01:27:37;;;;;;;15.63;8.30;;;;;;;;;;4972849;28;20043;-62
2022/10/10 01:30:10;;;;;;;9.70;5.93;;;;;;;;;;4972331;28;20059;-63
2022/10/10 01:32:59;;;;;;;17.50;7.68;;;;;;;;;;4971453;28;20113;-63
2022/10/10 01:35:28;;;;;;;13.03;7.23;;;;;;;;;;4952485;28;20038;-63
2022/10/10 01:38:13;;;;;;;10.87;6.37;;;;;;;;;;4964474;28;20098;-63
2022/10/10 01:41:05;;;;;;;29.63;7.63;;;;;;;;;;4972747;28;20043;-63
2022/10/10 01:43:32;;;;;;;12.50;6.77;;;;;;;;;;4969679;28;20166;-63
2022/10/10 01:45:58;;;;;;;13.70;6.83;;;;;;;;;;4964062;28;20054;-62
2022/10/10 01:48:28;;;;;;;9.27;6.73;;;;;;;;;;4972266;28;20043;-63
2022/10/10 01:51:13;;;;;;;10.90;6.80;;;;;;;;;;4972413;28;20042;-63
2022/10/10 01:54:02;;;;;;;9.60;6.50;;;;;;;;;;4964888;28;20138;-62
2022/10/10 01:56:46;;;;;;;11.43;6.03;;;;;;;;;;4971729;28;20546;-62
2022/10/10 01:59:24;;;;;;;10.57;6.43;;;;;;;;;;4968315;28;20061;-63
2022/10/10 02:01:54;;;;;;;10.20;6.43;;;;;;;;;;4969611;28;20050;-62
2022/10/10 02:04:30;;;;;;;12.00;7.20;;;;;;;;;;4969943;28;20137;-62
2022/10/10 02:07:18;;;;;;;10.70;6.73;;;;;;;;;;4971900;28;20146;-63
2022/10/10 02:09:46;;;;;;;12.50;7.30;;;;;;;;;;4965388;28;20057;-63
2022/10/10 02:12:12;;;;;;;22.37;7.73;;;;;;;;;;4971379;28;20412;-62
2022/10/10 02:14:46;;;;;;;10.23;6.80;;;;;;;;;;4971610;28;20515;-62
2022/10/10 02:17:14;;;;;;;8.52;6.65;;;;;;;;;;4971972;28;20043;-62
2022/10/10 02:19:45;;;;;;;12.17;7.10;;;;;;;;;;4965832;28;20043;-63
2022/10/10 02:22:12;;;;;;;12.17;6.50;;;;;;;;;;4960758;28;20398;-63
2022/10/10 02:24:38;;;;;;;10.13;6.27;;;;;;;;;;4968079;28;20046;-63
2022/10/10 02:27:30;;;;;;;13.63;7.53;;;;;;;;;;4966439;28;20137;-63
2022/10/10 02:29:57;;;;;;;12.57;6.90;;;;;;;;;;4954235;28;20086;-63
2022/10/10 02:32:30;;;;;;;14.50;6.87;;;;;;;;;;4971172;28;20094;-63
2022/10/10 02:34:58;;;;;;;13.82;7.22;;;;;;;;;;4971277;28;20047;-63
2022/10/10 02:37:25;;;;;;;10.83;7.40;;;;;;;;;;4970131;28;20463;-63
2022/10/10 02:39:54;;;;;;;9.67;6.50;;;;;;;;;;4970926;28;20046;-63
2022/10/10 02:42:21;;;;;;;10.27;6.73;;;;;;;;;;4971490;28;20051;-63
2022/10/10 02:44:47;;;;;;;10.53;6.83;;;;;;;;;;4971129;28;20098;-63
2022/10/10 02:47:14;;;;;;;10.77;6.50;;;;;;;;;;4970845;28;20043;-63
2022/10/10 02:49:40;;;;;;;12.23;7.33;;;;;;;;;;4963351;28;20054;-63
2022/10/10 02:52:06;;;;;;;11.70;7.10;;;;;;;;;;4963589;28;20094;-63
2022/10/10 02:54:32;;;;;;;9.80;6.97;;;;;;;;;;4971135;28;20527;-63
2022/10/10 02:56:58;;;;;;;11.70;8.13;;;;;;;;;;4969605;28;20143;-63
2022/10/10 02:59:24;;;;;;;12.03;6.93;;;;;;;;;;4971280;28;20085;-63
2022/10/10 03:01:50;;;;;;;9.97;7.47;;;;;;;;;;4970526;28;20078;-63
2022/10/10 03:04:16;;;;;;;11.47;7.33;;;;;;;;;;4966694;28;20054;-63
2022/10/10 03:06:42;;;;;;;12.23;7.43;;;;;;;;;;4970544;28;20042;-63
2022/10/10 03:09:08;;;;;;;17.00;8.13;;;;;;;;;;4967287;28;20408;-63
2022/10/10 03:11:34;;;;;;;13.83;8.63;;;;;;;;;;4971062;28;20452;-63
2022/10/10 03:14:00;;;;;;;11.73;7.57;;;;;;;;;;4966610;28;20795;-63
2022/10/10 03:16:27;;;;;;;10.53;7.03;;;;;;;;;;4972228;28;20035;-63
2022/10/10 03:18:52;;;;;;;13.10;7.50;;;;;;;;;;4969387;28;20043;-63
2022/10/10 03:21:19;;;;;;;10.67;7.83;;;;;;;;;;4972701;28;20122;-63
2022/10/10 03:23:45;;;;;;;9.13;7.00;;;;;;;;;;4961652;28;20051;-63
2022/10/10 03:26:11;;;;;;;15.70;8.00;;;;;;;;;;4963108;28;20050;-63
2022/10/10 03:28:37;;;;;;;9.07;7.07;;;;;;;;;;4983673;28;20049;-63
2022/10/10 03:31:03;;;;;;;12.30;8.03;;;;;;;;;;4972371;28;20055;-63
2022/10/10 03:33:29;;;;;;;13.97;8.00;;;;;;;;;;4965268;28;20572;-63
2022/10/10 03:35:55;;;;;;;11.87;7.03;;;;;;;;;;4970399;28;20081;-63
2022/10/10 03:38:21;;;;;;;13.10;7.80;;;;;;;;;;4958744;28;20046;-63
2022/10/10 03:40:47;;;;;;;12.13;7.53;;;;;;;;;;4960079;28;20735;-63
2022/10/10 03:43:14;;;;;;;14.93;7.80;;;;;;;;;;4970956;28;20109;-63
2022/10/10 03:45:46;;;;;;;13.10;8.10;;;;;;;;;;4974425;28;20042;-63
2022/10/10 03:48:14;;;;;;;12.43;9.57;;;;;;;;;;4970717;28;20051;-63
2022/10/10 03:50:40;;;;;;;10.83;7.77;;;;;;;;;;4970203;28;20077;-63
2022/10/10 03:53:06;;;;;;;16.00;8.83;;;;;;;;;;4968815;28;20050;-63
2022/10/10 03:55:32;;;;;;;18.03;8.97;;;;;;;;;;4963110;28;20039;-63
2022/10/10 03:57:58;;;;;;;14.33;10.10;;;;;;;;;;4970254;28;20057;-63
2022/10/10 04:00:24;;;;;;;12.80;8.17;;;;;;;;;;4963143;28;20497;-63
2022/10/10 04:02:52;;;;;;;14.50;8.63;;;;;;;;;;4963044;28;20577;-63
2022/10/10 04:05:18;;;;;;;13.20;8.47;;;;;;;;;;4968512;28;20666;-63
2022/10/10 04:07:44;;;;;;;9.83;7.57;;;;;;;;;;4970372;28;20074;-63
2022/10/10 04:10:10;;;;;;;12.67;7.50;;;;;;;;;;4960426;28;20071;-63
2022/10/10 04:12:36;;;;;;;12.13;7.73;;;;;;;;;;4963914;28;20075;-63
2022/10/10 04:15:02;;;;;;;11.47;7.87;;;;;;;;;;4970237;28;20077;-63
2022/10/10 04:17:28;;;;;;;15.37;8.50;;;;;;;;;;4969834;28;20122;-63
2022/10/10 04:19:54;;;;;;;19.50;9.67;;;;;;;;;;4968647;28;20118;-63
2022/10/10 04:22:20;;;;;;;14.27;7.97;;;;;;;;;;4959605;28;20055;-63
2022/10/10 04:24:46;;;;;;;16.10;9.23;;;;;;;;;;4964696;28;20043;-63
2022/10/10 04:27:12;;;;;;;15.77;9.63;;;;;;;;;;4969105;28;20086;-63
2022/10/10 04:29:38;;;;;;;17.50;9.97;;;;;;;;;;4964990;28;20054;-63
2022/10/10 04:32:04;;;;;;;16.63;10.40;;;;;;;;;;4958743;28;20521;-63
2022/10/10 04:34:30;;;;;;;16.07;9.60;;;;;;;;;;4953516;28;20420;-63
2022/10/10 04:36:56;;;;;;;15.93;9.93;;;;;;;;;;4969951;28;20075;-63
2022/10/10 04:39:22;;;;;;;15.13;8.97;;;;;;;;;;4969452;28;20085;-63
2022/10/10 04:41:49;;;;;;;15.53;9.37;;;;;;;;;;4960027;28;20047;-63
2022/10/10 04:44:18;;;;;;;17.87;10.17;;;;;;;;;;4969520;28;20130;-63
2022/10/10 04:46:45;;;;;;;19.03;9.67;;;;;;;;;;4969800;28;20039;-63
2022/10/10 04:49:11;;;;;;;20.43;10.37;;;;;;;;;;4966601;28;20039;-63
2022/10/10 04:51:37;;;;;;;14.57;9.33;;;;;;;;;;4961890;28;20042;-63
2022/10/10 04:54:03;;;;;;;14.70;9.40;;;;;;;;;;4969574;28;20523;-63
2022/10/10 04:56:29;;;;;;;17.20;9.90;;;;;;;;;;4968948;28;20042;-63
2022/10/10 04:58:55;;;;;;;18.30;10.60;;;;;;;;;;4969582;28;20042;-63
2022/10/10 05:01:21;;;;;;;17.47;9.83;;;;;;;;;;4969689;28;20043;-63
2022/10/10 05:03:47;;;;;;;13.47;9.63;;;;;;;;;;4964450;28;20078;-63
2022/10/10 05:06:13;;;;;;;16.40;10.33;;;;;;;;;;4966423;28;20073;-63
2022/10/10 05:08:39;;;;;;;19.20;10.37;;;;;;;;;;4969250;28;20114;-63
2022/10/10 05:11:05;;;;;;;17.53;9.77;;;;;;;;;;4969993;28;20129;-63
2022/10/10 05:13:31;;;;;;;17.00;9.60;;;;;;;;;;4959190;28;20094;-63
2022/10/10 05:15:59;;;;;;;21.87;11.00;;;;;;;;;;4963837;28;20096;-63
2022/10/10 05:18:25;;;;;;;18.67;11.00;;;;;;;;;;4968844;28;20054;-64
2022/10/10 05:20:51;;;;;;;20.80;11.13;;;;;;;;;;4969303;28;20141;-63
2022/10/10 05:23:17;;;;;;;16.53;10.77;;;;;;;;;;4969262;28;20134;-64
2022/10/10 05:25:43;;;;;;;16.70;11.60;;;;;;;;;;4953992;28;20043;-63
2022/10/10 05:28:10;;;;;;;17.73;11.10;;;;;;;;;;4960794;28;20122;-64
2022/10/10 05:30:36;;;;;;;17.93;11.43;;;;;;;;;;4968741;28;20090;-64
2022/10/10 05:33:02;;;;;;;17.20;11.23;;;;;;;;;;4969581;28;20077;-64
2022/10/10 05:35:28;;;;;;;15.80;10.37;;;;;;;;;;4968169;28;20103;-63
2022/10/10 05:37:54;;;;;;;19.17;11.67;;;;;;;;;;4969214;28;20151;-64
2022/10/10 05:40:20;;;;;;;20.47;11.57;;;;;;;;;;4969087;28;20505;-64
2022/10/10 05:42:46;;;;;;;24.70;11.90;;;;;;;;;;4968871;28;20166;-64
2022/10/10 05:45:12;;;;;;;15.83;11.00;;;;;;;;;;4969525;28;20081;-64
2022/10/10 05:47:38;;;;;;;18.53;11.20;;;;;;;;;;4959391;28;20498;-64
2022/10/10 05:50:04;;;;;;;18.10;11.20;;;;;;;;;;4962914;28;20544;-63
2022/10/10 05:52:30;;;;;;;18.30;11.73;;;;;;;;;;4961050;28;20085;-64
2022/10/10 05:54:56;;;;;;;18.43;11.23;;;;;;;;;;4969114;28;20070;-63
2022/10/10 05:57:22;;;;;;;28.30;12.70;;;;;;;;;;4968690;28;20054;-64
2022/10/10 05:59:48;;;;;;;15.67;10.67;;;;;;;;;;4967779;28;20051;-63
2022/10/10 06:02:14;;;;;;;24.60;12.97;;;;;;;;;;4962741;28;20150;-63
2022/10/10 06:04:40;;;;;;;20.03;11.97;;;;;;;;;;4966132;28;20043;-63
2022/10/10 06:07:06;;;;;;;21.30;11.80;;;;;;;;;;4965337;28;20086;-63
2022/10/10 06:09:32;;;;;;;20.00;12.87;;;;;;;;;;4972411;28;20050;-64
2022/10/10 06:11:59;;;;;;;21.03;13.33;;;;;;;;;;4964348;28;20053;-63
2022/10/10 06:14:25;;;;;;;20.60;12.60;;;;;;;;;;4965594;28;20054;-63
2022/10/10 06:16:51;;;;;;;18.40;12.23;;;;;;;;;;4969613;28;20078;-64
2022/10/10 06:19:17;;;;;;;22.67;13.00;;;;;;;;;;4957414;28;20138;-63
2022/10/10 06:21:43;;;;;;;19.17;12.67;;;;;;;;;;4969294;28;20089;-63
2022/10/10 06:24:09;;;;;;;20.57;12.40;;;;;;;;;;4969435;28;20042;-62
2022/10/10 06:26:35;;;;;;;27.33;11.63;;;;;;;;;;4972089;28;20078;-63
2022/10/10 06:29:01;;;;;;;25.73;13.00;;;;;;;;;;4970926;28;20043;-63
2022/10/10 06:31:27;;;;;;;25.57;12.37;;;;;;;;;;4971071;28;20694;-63
2022/10/10 06:33:54;;;;;;;20.10;12.10;;;;;;;;;;4971083;28;20057;-63
2022/10/10 06:36:20;;;;;;;19.70;11.60;;;;;;;;;;4971286;28;20050;-62
2022/10/10 06:38:46;;;;;;;16.90;11.47;;;;;;;;;;4963118;28;20531;-62
2022/10/10 06:41:12;;;;;;;19.27;11.23;;;;;;;;;;4963976;28;20441;-62
2022/10/10 06:43:40;;;;;;;22.40;11.50;;;;;;;;;;4963392;28;20054;-63
2022/10/10 06:46:06;;;;;;;19.47;11.83;;;;;;;;;;4963674;28;20050;-62
2022/10/10 06:48:34;;;;;;;21.30;10.70;;;;;;;;;;4965187;28;20039;-63
2022/10/10 06:51:05;;;;;;;19.23;11.33;;;;;;;;;;4969952;28;20602;-62
2022/10/10 06:53:31;;;;;;;15.87;10.50;;;;;;;;;;4971224;28;20501;-62
2022/10/10 06:55:58;;;;;;;18.77;10.63;;;;;;;;;;4971231;28;20042;-62
2022/10/10 06:58:24;;;;;;;16.87;9.67;;;;;;;;;;4967489;28;20497;-64
2022/10/10 07:00:55;;;;;;;15.90;10.17;;;;;;;;;;4951274;29;20141;-63
2022/10/10 07:03:21;;;;;;;19.17;9.67;;;;;;;;;;4952699;28;20051;-62
2022/10/10 07:05:51;;;;;;;15.93;9.70;;;;;;;;;;4952410;29;20043;-64
2022/10/10 07:08:18;;;;;;;16.80;9.47;;;;;;;;;;4956307;28;20047;-64
2022/10/10 07:10:44;;;;;;;15.53;9.93;;;;;;;;;;4971487;28;20151;-64
2022/10/10 07:13:10;;;;;;;17.13;8.93;;;;;;;;;;4979100;28;20043;-63
2022/10/10 07:15:36;;;;;;;14.70;8.97;;;;;;;;;;4968597;28;20049;-64
2022/10/10 07:18:02;;;;;;;16.17;8.53;;;;;;;;;;4971306;28;20050;-63
2022/10/10 07:20:28;;;;;;;13.03;8.80;;;;;;;;;;4971609;28;20046;-63
2022/10/10 07:22:54;;;;;;;18.23;8.37;;;;;;;;;;4971553;28;20051;-61
2022/10/10 07:25:20;;;;;;;14.93;9.03;;;;;;;;;;4979490;28;20050;-63
2022/10/10 07:27:47;;;;;;;12.00;7.40;;;;;;;;;;4978849;28;20051;-63
2022/10/10 07:30:13;;;;;;;12.77;8.63;;;;;;;;;;4990482;28;20106;-64
2022/10/10 07:32:39;;;;;;;15.17;8.30;;;;;;;;;;4990693;28;20050;-62
2022/10/10 07:35:05;;;;;;;13.30;7.50;;;;;;;;;;4985141;28;20054;-63
2022/10/10 07:37:31;;;;;;;16.23;7.90;;;;;;;;;;4971235;28;20054;-62
2022/10/10 07:39:57;;;;;;;14.10;8.33;;;;;;;;;;4970447;28;20534;-61
2022/10/10 07:42:24;;;;;;;13.83;7.70;;;;;;;;;;4969829;28;20055;-61
2022/10/10 07:44:52;;;;;;;11.70;7.90;;;;;;;;;;4970227;28;20663;-61
2022/10/10 07:47:18;;;;;;;9.07;6.73;;;;;;;;;;4968255;28;20171;-62
2022/10/10 07:49:44;;;;;;;12.67;6.63;;;;;;;;;;4968289;28;20081;-62
2022/10/10 07:52:10;;;;;;;11.40;7.43;;;;;;;;;;4962176;28;20528;-62
2022/10/10 07:54:36;;;;;;;13.03;7.70;;;;;;;;;;4962285;28;20056;-62
2022/10/10 07:57:02;;;;;;;14.87;7.07;;;;;;;;;;4969061;28;20106;-62
2022/10/10 07:59:28;;;;;;;11.83;7.53;;;;;;;;;;4959602;28;21829;-62
2022/10/10 08:01:54;;;;;;;10.03;7.00;;;;;;;;;;4966367;28;20047;-62
2022/10/10 08:04:21;;;;;;;13.63;7.47;;;;;;;;;;4965956;28;20062;-62
2022/10/10 08:06:47;;;;;;;10.17;6.90;;;;;;;;;;4970161;28;20043;-62
2022/10/10 08:09:13;;;;;;;15.47;7.90;;;;;;;;;;4970018;28;20054;-62
2022/10/10 08:11:39;;;;;;;13.13;7.43;;;;;;;;;;4969763;28;20393;-62
2022/10/10 08:14:05;;;;;;;10.60;6.93;;;;;;;;;;4969562;28;20049;-62
2022/10/10 08:16:31;;;;;;;14.97;7.13;;;;;;;;;;4961558;28;20058;-63
2022/10/10 08:18:57;;;;;;;14.87;7.27;;;;;;;;;;4970256;28;20130;-63
2022/10/10 08:21:23;;;;;;;12.43;7.60;;;;;;;;;;4969533;28;20067;-63
2022/10/10 08:23:49;;;;;;;14.63;7.60;;;;;;;;;;4969715;28;20441;-63
2022/10/10 08:26:17;;;;;;;14.87;7.77;;;;;;;;;;4969671;28;20049;-63
2022/10/10 08:28:43;;;;;;;12.60;6.93;;;;;;;;;;4969266;28;20054;-63
2022/10/10 08:31:10;;;;;;;12.03;7.30;;;;;;;;;;4969122;28;20055;-64
2022/10/10 08:33:37;;;;;;;11.47;6.70;;;;;;;;;;4968973;28;20063;-64
2022/10/10 08:36:07;;;;;;;14.83;7.10;;;;;;;;;;4964340;28;20043;-64
2022/10/10 08:38:33;;;;;;;12.47;7.50;;;;;;;;;;4966858;28;20497;-63
2022/10/10 08:41:00;;;;;;;10.67;6.40;;;;;;;;;;4969978;28;20049;-63
2022/10/10 08:43:31;;;;;;;11.83;6.53;;;;;;;;;;4961318;28;20098;-63
2022/10/10 08:45:58;;;;;;;9.33;6.00;;;;;;;;;;4961597;28;20045;-64
2022/10/10 08:48:27;;;;;;;9.37;6.20;;;;;;;;;;4968546;28;20410;-63
2022/10/10 08:51:00;;;;;;;7.70;5.97;;;;;;;;;;4968541;28;20038;-64
2022/10/10 08:53:38;;;;;;;11.13;6.17;;;;;;;;;;4960104;28;20050;-64
2022/10/10 08:56:05;;;;;;;8.63;5.57;;;;;;;;;;4969101;28;21680;-63
2022/10/10 08:58:38;;;;;;;9.10;4.97;;;;;;;;;;4968245;28;20051;-63
2022/10/10 09:01:24;;;;;;;8.27;5.53;;;;;;;;;;4963439;28;20046;-63
2022/10/10 09:03:55;;;;;;;8.83;5.07;;;;;;;;;;4961217;28;20066;-63
2022/10/10 09:06:20;;;;;;;11.30;5.33;;;;;;;;;;4969517;28;20054;-63
2022/10/10 09:08:59;;;;;;;11.10;5.13;;;;;;;;;;4967086;28;20449;-63
2022/10/10 09:11:28;;;;;;;10.70;4.93;;;;;;;;;;4969348;28;20449;-63
2022/10/10 09:14:03;;;;;;;8.90;5.37;;;;;;;;;;4968361;28;20062;-63
2022/10/10 09:16:52;;;;;;;9.40;5.03;;;;;;;;;;4967379;28;20496;-62
2022/10/10 09:19:37;;;;;;;8.47;4.63;;;;;;;;;;4962868;28;20480;-63
2022/10/10 09:22:06;;;;;;;7.87;5.23;;;;;;;;;;4967276;28;20057;-64
2022/10/10 09:24:52;;;;;;;9.20;4.90;;;;;;;;;;4968281;28;20413;-63
2022/10/10 09:27:24;;;;;;;7.93;4.63;;;;;;;;;;4957309;28;20051;-63
2022/10/10 09:29:57;;;;;;;5.80;4.07;;;;;;;;;;4963440;28;20082;-63
2022/10/10 09:32:44;;;;;;;7.72;4.75;;;;;;;;;;4960756;28;20054;-63
2022/10/10 09:35:16;;;;;;;8.80;4.10;;;;;;;;;;4964785;28;20122;-63
2022/10/10 09:37:43;;;;;;;8.57;4.03;;;;;;;;;;4967003;28;20046;-63
2022/10/10 09:40:09;;;;;;;11.40;4.27;;;;;;;;;;4968277;28;20126;-63
2022/10/10 09:42:37;;;;;;;8.93;4.40;;;;;;;;;;4962658;28;20078;-63
2022/10/10 09:45:04;;;;;;;9.60;4.10;;;;;;;;;;4971831;28;20046;-63
2022/10/10 09:47:30;;;;;;;9.43;4.37;;;;;;;;;;4972202;28;20053;-63
2022/10/10 09:49:56;;;;;;;7.40;4.17;;;;;;;;;;4972556;28;20043;-63
2022/10/10 09:52:27;;;;;;;8.03;4.13;;;;;;;;;;4971201;28;20053;-63
2022/10/10 09:55:01;;;;;;;7.50;4.13;;;;;;;;;;4971651;28;20043;-64
2022/10/10 09:57:36;;;;;;;8.83;4.50;;;;;;;;;;4963783;28;20111;-63
2022/10/10 10:00:22;;;;;;;11.27;4.20;;;;;;;;;;4971684;28;20051;-63
2022/10/10 10:02:49;;;;;;;8.87;4.77;;;;;;;;;;4964471;28;20172;-63
2022/10/10 10:05:23;;;;;;;11.23;6.07;;;;;;;;;;4963778;28;20382;-64
2022/10/10 10:07:51;;;;;;;11.53;5.00;;;;;;;;;;4963055;28;20051;-63
2022/10/10 10:10:22;;;;;;;9.67;4.73;;;;;;;;;;4963494;28;20138;-63
2022/10/10 10:12:49;;;;;;;10.30;5.60;;;;;;;;;;4971227;28;20042;-63
2022/10/10 10:15:23;;;;;;;7.33;4.90;;;;;;;;;;4971619;28;20038;-63
2022/10/10 10:18:08;;;;;;;7.97;5.63;;;;;;;;;;4971300;28;20042;-63
2022/10/10 10:20:35;;;;;;;10.77;4.83;;;;;;;;;;4972235;28;20047;-63
2022/10/10 10:23:01;;;;;;;6.37;4.73;;;;;;;;;;4966766;28;20039;-63
2022/10/10 10:25:35;;;;;;;8.30;4.63;;;;;;;;;;4966868;28;20098;-63
2022/10/10 10:28:11;;;;;;;11.13;5.03;;;;;;;;;;4967665;28;20531;-63
2022/10/10 10:30:38;;;;;;;9.97;4.40;;;;;;;;;;4967183;28;20070;-63
2022/10/10 10:33:29;;;;;;;9.23;4.63;;;;;;;;;;4963018;28;20370;-63
2022/10/10 10:36:13;;;;;;;7.23;4.20;;;;;;;;;;4962976;28;20053;-63
2022/10/10 10:38:45;;;;;;;10.07;4.73;;;;;;;;;;4969698;28;20039;-63
2022/10/10 10:41:14;;;;;;;8.93;4.77;;;;;;;;;;4966053;28;20061;-63
2022/10/10 10:43:59;;;;;;;10.30;4.53;;;;;;;;;;4962896;28;20458;-63
2022/10/10 10:46:26;;;;;;;9.83;4.67;;;;;;;;;;4969922;28;20181;-63
2022/10/10 10:48:59;;;;;;;8.30;4.53;;;;;;;;;;4970589;28;20050;-63
2022/10/10 10:51:38;;;;;;;8.73;4.83;;;;;;;;;;4971416;28;20062;-63
2022/10/10 10:54:15;;;;;;;11.40;5.33;;;;;;;;;;4971959;28;20042;-63
2022/10/10 10:56:47;;;;;;;10.60;4.40;;;;;;;;;;4972388;28;20053;-63
2022/10/10 10:59:20;;;;;;;9.20;4.27;;;;;;;;;;4971294;28;20046;-63
2022/10/10 11:01:51;;;;;;;7.70;4.60;;;;;;;;;;4971901;28;20046;-64
2022/10/10 11:04:17;;;;;;;8.57;4.83;;;;;;;;;;4983665;28;20089;-63
2022/10/10 11:07:01;;;;;;;10.33;5.27;;;;;;;;;;4991197;28;20077;-63
2022/10/10 11:09:30;;;;;;;10.60;5.10;;;;;;;;;;4953070;28;20051;-63
2022/10/10 11:12:00;;;;;;;9.10;4.80;;;;;;;;;;4951806;29;20272;-63
2022/10/10 11:14:46;;;;;;;9.20;4.70;;;;;;;;;;4952251;29;20102;-63
2022/10/10 11:17:12;;;;;;;9.30;4.83;;;;;;;;;;4973409;28;21070;-63
2022/10/10 11:19:44;;;;;;;9.87;5.20;;;;;;;;;;4972812;28;20492;-63
2022/10/10 11:22:14;;;;;;;8.87;4.77;;;;;;;;;;4971470;28;20049;-63
2022/10/10 11:24:41;;;;;;;9.43;4.20;;;;;;;;;;4970514;28;20046;-63
2022/10/10 11:27:13;;;;;;;11.13;5.00;;;;;;;;;;4971381;28;20460;-63
2022/10/10 11:29:58;;;;;;;13.05;4.43;;;;;;;;;;4970866;28;20051;-63
2022/10/10 11:32:30;;;;;;;8.83;4.50;;;;;;;;;;4971059;28;20130;-63
2022/10/10 11:34:55;;;;;;;12.63;6.37;;;;;;;;;;4971206;28;20047;-63
2022/10/10 11:37:25;;;;;;;9.70;4.87;;;;;;;;;;4970761;28;20494;-63
2022/10/10 11:40:01;;;;;;;7.37;5.13;;;;;;;;;;4969477;28;20043;-63
2022/10/10 11:42:31;;;;;;;10.93;5.03;;;;;;;;;;4971004;28;20050;-63
2022/10/10 11:44:59;;;;;;;10.40;4.77;;;;;;;;;;4970930;28;20046;-63
2022/10/10 11:47:28;;;;;;;11.23;4.77;;;;;;;;;;4961151;28;20184;-63
2022/10/10 11:50:00;;;;;;;10.63;5.30;;;;;;;;;;4969785;28;20035;-63
2022/10/10 11:52:30;;;;;;;10.38;5.63;;;;;;;;;;4969401;28;20097;-63
2022/10/10 11:55:09;;;;;;;7.87;4.60;;;;;;;;;;4965362;28;20513;-63
2022/10/10 11:57:41;;;;;;;9.63;5.00;;;;;;;;;;4967455;28;20067;-63
2022/10/10 12:00:11;;;;;;;9.87;5.17;;;;;;;;;;4969673;28;20045;-63
2022/10/10 12:02:39;;;;;;;11.33;5.00;;;;;;;;;;4968901;28;20082;-63
2022/10/10 12:05:05;;;;;;;12.27;5.37;;;;;;;;;;4965504;28;20051;-63
2022/10/10 12:07:31;;;;;;;10.80;4.80;;;;;;;;;;4966441;28;20161;-63
2022/10/10 12:10:02;;;;;;;8.13;4.47;;;;;;;;;;4969826;28;20125;-63
2022/10/10 12:12:31;;;;;;;8.43;4.60;;;;;;;;;;4962960;28;20043;-63
2022/10/10 12:14:59;;;;;;;29.03;6.67;;;;;;;;;;4967968;28;20082;-63
2022/10/10 12:17:31;;;;;;;8.63;4.80;;;;;;;;;;4969595;28;20126;-63
2022/10/10 12:20:30;;;;;;;9.33;5.07;;;;;;;;;;4968468;28;20035;-63
2022/10/10 12:23:15;;;;;;;11.97;5.33;;;;;;;;;;4947278;28;20077;-63
2022/10/10 12:25:44;;;;;;;8.40;4.73;;;;;;;;;;4968029;28;20038;-63
2022/10/10 12:28:12;;;;;;;14.37;5.13;;;;;;;;;;4959761;28;20046;-63
2022/10/10 12:30:54;;;;;;;10.80;5.30;;;;;;;;;;4959626;28;20046;-62
2022/10/10 12:33:26;;;;;;;10.07;5.43;;;;;;;;;;4957038;28;20165;-62
2022/10/10 12:35:53;;;;;;;14.17;5.87;;;;;;;;;;4960561;28;20043;-62
2022/10/10 12:38:23;;;;;;;15.53;6.23;;;;;;;;;;4960630;28;20472;-62
2022/10/10 12:41:08;;;;;;;15.07;7.83;;;;;;;;;;4961076;28;20053;-62
2022/10/10 12:43:50;;;;;;;13.50;6.50;;;;;;;;;;4957512;28;20049;-62
2022/10/10 12:46:28;;;;;;;13.93;7.15;;;;;;;;;;4958038;28;20536;-63
2022/10/10 12:49:17;;;;;;;13.10;8.10;;;;;;;;;;4959410;28;20091;-63
2022/10/10 12:51:44;;;;;;;15.87;7.83;;;;;;;;;;4949879;28;20927;-63
2022/10/10 12:54:28;;;;;;;14.57;8.97;;;;;;;;;;4959837;28;20074;-63
2022/10/10 12:57:01;;;;;;;15.43;9.10;;;;;;;;;;4961309;28;20058;-63
2022/10/10 12:59:27;;;;;;;;;;;;;;;;;;4958320;28;20659;-64
2022/10/10 13:01:57;;;;;;;29.67;11.53;;;;;;;;;;4961076;28;19922;-64
2022/10/10 13:04:25;;;;;;;22.90;10.50;;;;;;;;;;4958726;28;20043;-64
2022/10/10 13:06:56;;;;;;;18.47;11.80;;;;;;;;;;4959962;28;20036;-64
2022/10/10 13:09:24;;;;;;;24.27;12.77;;;;;;;;;;4959824;28;20039;-64
2022/10/10 13:11:53;;;;;;;27.47;13.20;;;;;;;;;;4960233;28;20047;-65
2022/10/10 13:14:19;;;;;;;21.93;13.00;;;;;;;;;;4966938;28;20054;-65
2022/10/10 13:16:46;;;;;;;32.83;16.07;;;;;;;;;;4973156;28;20127;-64
2022/10/10 13:19:30;;;;;;;25.30;15.47;;;;;;;;;;4971395;28;20061;-65
2022/10/10 13:21:56;;;;;;;26.20;13.37;;;;;;;;;;4963566;28;20122;-66
2022/10/10 13:24:26;;;;;;;26.00;13.43;;;;;;;;;;4962405;28;20093;-66
2022/10/10 13:26:52;;;;;;;30.17;15.03;;;;;;;;;;4963275;28;20078;-65
2022/10/10 13:29:25;;;;;;;23.10;15.07;;;;;;;;;;4972804;28;20054;-66
2022/10/10 13:31:51;;;;;;;27.50;14.77;;;;;;;;;;4973495;28;20128;-66
2022/10/10 13:34:22;;;;;;;26.17;14.53;;;;;;;;;;4971926;28;20050;-65
2022/10/10 13:36:48;;;;;;;29.60;15.47;;;;;;;;;;4983258;28;20054;-65
2022/10/10 13:39:16;;;;;;;19.50;13.50;;;;;;;;;;4990185;28;20137;-65
2022/10/10 13:41:44;;;;;;;25.00;13.73;;;;;;;;;;4991703;28;20054;-65
2022/10/10 13:44:14;;;;;;;20.33;13.20;;;;;;;;;;4991708;28;20531;-65
2022/10/10 13:46:40;;;;;;;26.27;15.10;;;;;;;;;;4992450;28;20520;-65
2022/10/10 13:49:33;;;;;;;26.20;14.63;;;;;;;;;;4991054;28;20385;-64
2022/10/10 13:52:00;;;;;;;29.27;13.87;;;;;;;;;;4977800;28;20100;-64
2022/10/10 13:54:36;;;;;;;24.83;14.67;;;;;;;;;;4973271;28;20043;-65
2022/10/10 13:57:03;;;;;;;28.33;14.93;;;;;;;;;;4973651;28;20058;-64
2022/10/10 13:59:30;;;;;;;28.37;13.27;;;;;;;;;;4972965;28;20043;-64
2022/10/10 14:01:59;;;;;;;30.73;15.27;;;;;;;;;;4974751;28;20058;-65
2022/10/10 14:04:29;;;;;;;27.10;13.87;;;;;;;;;;4973828;28;20039;-65
2022/10/10 14:06:54;;;;;;;32.80;16.40;;;;;;;;;;4973253;28;20097;-66
2022/10/10 14:09:24;;;;;;;19.67;8.27;;;;;;;;;;4973062;28;20043;-65
2022/10/10 14:11:51;;;;;;;15.17;7.13;;;;;;;;;;4973212;28;20046;-65
2022/10/10 14:14:21;;;;;;;13.50;5.83;;;;;;;;;;4972957;28;20046;-65
2022/10/10 14:16:57;;;;;;;9.87;3.07;;;;;;;;;;4972746;28;20049;-65
2022/10/10 14:19:24;;;;;;;10.10;3.63;;;;;;;;;;4972240;28;20412;-65
2022/10/10 14:21:50;;;;;;;6.50;2.20;;;;;;;;;;4971751;28;20051;-65
2022/10/10 14:24:16;;;;;;;6.97;1.57;;;;;;;;;;4973361;28;20057;-64
2022/10/10 14:26:42;;;;;;;6.73;1.83;;;;;;;;;;4972615;28;20737;-65
2022/10/10 14:29:17;;;;;;;6.13;1.60;;;;;;;;;;4961671;28;20054;-65
2022/10/10 14:31:44;;;;;;;7.47;1.67;;;;;;;;;;4954021;28;20051;-65
2022/10/10 14:34:10;;;;;;;6.83;0.73;;;;;;;;;;4953994;29;20061;-66
2022/10/10 14:36:46;;;;;;;10.07;1.40;;;;;;;;;;4966981;28;20069;-65
2022/10/10 14:39:16;;;;;;;5.30;1.03;;;;;;;;;;4972064;28;20042;-66
2022/10/10 14:41:42;;;;;;;7.67;1.43;;;;;;;;;;4983587;28;20429;-66
2022/10/10 14:44:08;;;;;;;17.43;3.30;;;;;;;;;;4974337;28;20134;-66